createdAt,value
2022-08-05T00:02:21.881Z,99951.63
2022-08-05T00:04:55.129Z,99979.66
2022-08-05T00:07:59.402Z,100034.06
2022-08-05T00:10:10.666Z,100056.44
2022-08-05T00:12:56.781Z,100032.25
2022-08-05T00:15:56.264Z,100079.47
2022-08-05T00:18:15.029Z,100085.88
2022-08-05T00:20:49.755Z,100086.66
2022-08-05T00:23:16.422Z,100061.97
2022-08-05T00:25:46.163Z,100051.47
2022-08-05T00:28:13.622Z,100053.25
2022-08-05T00:30:41.191Z,100074.63
2022-08-05T00:33:15.684Z,100084.63
2022-08-05T00:36:16.415Z,100085.13
2022-08-05T00:38:44.294Z,100099.84
2022-08-05T00:41:11.795Z,100102.19
2022-08-05T00:43:47.283Z,100084.44
2022-08-05T00:46:16.545Z,100095.91
2022-08-05T00:48:50.660Z,100073.78
2022-08-05T00:51:51.935Z,100110.47
2022-08-05T00:54:06.262Z,100102.63
2022-08-05T00:56:32.826Z,100083.47
2022-08-05T00:59:00.351Z,100061.97
2022-08-05T01:01:42.729Z,100078.34
2022-08-05T01:04:14.092Z,100064.22
2022-08-05T01:06:43.850Z,100026.75
2022-08-05T01:09:20.107Z,100029.69
2022-08-05T01:11:49.638Z,99987.03
2022-08-05T01:14:37.415Z,99962.50
2022-08-05T01:17:10.719Z,99958.75
2022-08-05T01:20:01.204Z,99978.22
2022-08-05T01:22:57.475Z,99984.84
2022-08-05T01:25:24.102Z,99967.06
2022-08-05T01:28:20.442Z,99959.25
2022-08-05T01:30:53.780Z,99966.19
2022-08-05T01:33:25.173Z,99961.84
2022-08-05T01:35:55.536Z,99973.13
2022-08-05T01:38:29.225Z,99958.91
2022-08-05T01:41:07.001Z,99961.19
2022-08-05T01:43:34.035Z,99964.94
2022-08-05T01:46:07.559Z,99967.00
2022-08-05T01:48:49.825Z,99965.13
2022-08-05T01:51:18.416Z,99953.97
2022-08-05T01:53:57.887Z,99939.06
2022-08-05T01:58:10.383Z,99959.84
2022-08-05T01:59:17.840Z,99952.47
2022-08-05T02:01:49.078Z,99957.22
2022-08-05T02:04:18.263Z,99933.06
2022-08-05T02:06:45.214Z,99940.47
2022-08-05T02:09:12.074Z,99934.59
2022-08-05T02:11:57.036Z,99906.50
2022-08-05T02:14:32.388Z,99883.19
2022-08-05T02:17:26.234Z,99880.00
2022-08-05T02:20:03.160Z,99875.94
2022-08-05T02:22:35.303Z,99870.69
2022-08-05T02:25:19.578Z,99878.34
2022-08-05T02:27:58.190Z,99885.69
2022-08-05T02:30:30.824Z,99909.22
2022-08-05T02:32:59.783Z,99938.56
2022-08-05T02:35:37.429Z,99971.56
2022-08-05T02:38:06.169Z,100002.44
2022-08-05T02:40:37.479Z,100019.88
2022-08-05T02:43:07.276Z,99989.44
2022-08-05T02:45:52.951Z,100022.72
2022-08-05T02:48:29.582Z,100010.34
2022-08-05T02:51:00.147Z,100035.41
2022-08-05T02:53:27.068Z,100041.56
2022-08-05T02:55:59.926Z,100029.03
2022-08-05T02:58:30.345Z,100030.34
2022-08-05T03:01:00.208Z,100053.59
2022-08-05T03:03:33.767Z,100068.25
2022-08-05T03:06:55.283Z,100084.13
2022-08-05T03:09:04.535Z,100074.50
2022-08-05T03:11:54.980Z,100086.41
2022-08-05T03:14:18.072Z,100062.63
2022-08-05T03:16:45.816Z,100061.31
2022-08-05T03:19:29.434Z,100070.09
2022-08-05T03:21:59.597Z,100080.44
2022-08-05T03:24:30.475Z,100062.88
2022-08-05T03:27:00.032Z,100073.63
2022-08-05T03:29:45.535Z,100063.91
2022-08-05T03:32:15.557Z,100037.25
2022-08-05T03:34:50.778Z,100006.22
2022-08-05T03:37:18.988Z,100033.63
2022-08-05T03:40:01.242Z,100056.41
2022-08-05T03:42:32.478Z,100041.72
2022-08-05T03:44:59.818Z,100111.75
2022-08-05T03:47:30.284Z,100124.50
2022-08-05T03:49:57.562Z,100148.16
2022-08-05T03:52:48.367Z,100144.78
2022-08-05T03:56:00.856Z,100183.28
2022-08-05T03:58:17.943Z,100184.44
2022-08-05T04:00:46.494Z,100199.75
2022-08-05T04:03:28.207Z,100161.91
2022-08-05T04:05:58.031Z,100176.75
2022-08-05T04:08:34.736Z,100157.94
2022-08-05T04:11:05.191Z,100176.66
2022-08-05T04:13:50.059Z,100155.84
2022-08-05T04:16:25.152Z,100167.88
2022-08-05T04:18:57.947Z,100152.00
2022-08-05T04:22:10.119Z,100139.25
2022-08-05T04:24:19.310Z,100132.19
2022-08-05T04:26:49.703Z,100144.94
2022-08-05T04:29:16.705Z,100122.88
2022-08-05T04:31:43.248Z,100087.47
2022-08-05T04:34:31.473Z,100100.91
2022-08-05T04:36:56.529Z,100123.69
2022-08-05T04:39:23.227Z,100108.97
2022-08-05T04:41:51.349Z,100108.63
2022-08-05T04:44:21.247Z,100097.16
2022-08-05T04:46:50.977Z,100109.34
2022-08-05T04:49:19.442Z,100108.34
2022-08-05T04:52:05.026Z,100092.84
2022-08-05T04:54:34.422Z,100134.84
2022-08-05T04:57:01.328Z,100117.75
2022-08-05T04:59:38.450Z,100107.69
2022-08-05T05:02:41.330Z,100138.97
2022-08-05T05:04:52.921Z,100148.13
2022-08-05T05:07:29.754Z,100159.19
2022-08-05T05:10:02.318Z,100166.53
2022-08-05T05:12:29.656Z,100157.06
2022-08-05T05:14:56.481Z,100152.84
2022-08-05T05:17:55.822Z,100150.53
2022-08-05T05:20:12.118Z,100183.84
2022-08-05T05:22:40.861Z,100191.19
2022-08-05T05:25:16.995Z,100193.81
2022-08-05T05:27:45.888Z,100182.44
2022-08-05T05:30:29.275Z,100150.03
2022-08-05T05:33:00.878Z,100188.22
2022-08-05T05:35:37.977Z,100210.78
2022-08-05T05:38:08.965Z,100221.56
2022-08-05T05:40:43.774Z,100194.38
2022-08-05T05:43:16.387Z,100173.91
2022-08-05T05:45:54.753Z,100191.41
2022-08-05T05:48:27.631Z,100181.19
2022-08-05T05:50:54.710Z,100193.47
2022-08-05T05:53:22.754Z,100212.84
2022-08-05T05:55:52.310Z,100204.28
2022-08-05T05:58:31.881Z,100205.63
2022-08-05T06:01:02.480Z,100219.50
2022-08-05T06:04:00.352Z,100232.53
2022-08-05T06:06:28.120Z,100162.03
2022-08-05T06:08:58.665Z,100200.09
2022-08-05T06:11:26.096Z,100191.16
2022-08-05T06:13:55.551Z,100180.41
2022-08-05T06:16:28.359Z,100157.66
2022-08-05T06:19:00.818Z,100145.22
2022-08-05T06:21:37.105Z,100178.63
2022-08-05T06:24:11.279Z,100151.28
2022-08-05T06:26:39.576Z,100133.16
2022-08-05T06:29:23.571Z,100155.81
2022-08-05T06:32:05.752Z,100158.72
2022-08-05T06:34:48.203Z,100159.59
2022-08-05T06:37:56.014Z,100148.56
2022-08-05T06:40:07.530Z,100152.34
2022-08-05T06:42:34.115Z,100146.78
2022-08-05T06:45:00.791Z,100149.91
2022-08-05T06:48:36.023Z,100139.19
2022-08-05T06:50:19.089Z,100170.72
2022-08-05T06:52:58.455Z,100141.34
2022-08-05T06:55:25.778Z,100124.06
2022-08-05T06:58:02.824Z,100110.72
2022-08-05T07:00:41.207Z,100083.59
2022-08-05T07:03:09.823Z,100106.28
2022-08-05T07:05:37.174Z,100131.34
2022-08-05T07:08:04.845Z,100150.88
2022-08-05T07:10:32.743Z,100179.34
2022-08-05T07:13:17.825Z,100207.94
2022-08-05T07:17:55.962Z,100194.34
2022-08-05T07:19:09.957Z,100251.47
2022-08-05T07:22:01.099Z,100252.81
2022-08-05T07:24:23.772Z,100267.22
2022-08-05T07:26:55.453Z,100254.50
2022-08-05T07:30:22.144Z,100271.09
2022-08-05T07:32:08.873Z,100273.13
2022-08-05T07:34:39.231Z,100270.56
2022-08-05T07:37:09.187Z,100253.50
2022-08-05T07:40:26.527Z,100270.44
2022-08-05T07:42:31.779Z,100252.81
2022-08-05T07:45:00.962Z,100261.97
2022-08-05T07:47:27.726Z,100261.28
2022-08-05T07:50:09.674Z,100260.56
2022-08-05T07:52:40.830Z,100260.88
2022-08-05T07:55:44.509Z,100257.91
2022-08-05T07:58:02.476Z,100262.44
2022-08-05T08:00:29.929Z,100268.00
2022-08-05T08:03:14.730Z,100267.81
2022-08-05T08:05:49.461Z,100284.16
2022-08-05T08:08:17.044Z,100285.28
2022-08-05T08:10:48.720Z,100288.78
2022-08-05T08:13:15.837Z,100267.31
2022-08-05T08:16:42.996Z,100280.53
2022-08-05T08:18:35.806Z,100273.56
2022-08-05T08:21:09.855Z,100265.06
2022-08-05T08:24:02.841Z,100277.81
2022-08-05T08:26:30.772Z,100277.91
2022-08-05T08:29:21.586Z,100268.41
2022-08-05T08:31:45.568Z,100267.38
2022-08-05T08:40:42.048Z,100268.97
2022-08-05T08:45:17.182Z,100254.25
2022-08-05T08:46:06.663Z,100266.53
2022-08-05T08:49:01.014Z,100273.13
2022-08-05T08:52:04.360Z,100261.09
2022-08-05T08:54:18.263Z,100263.81
2022-08-05T08:56:47.435Z,100269.44
2022-08-05T08:59:21.025Z,100273.13
2022-08-05T09:01:57.650Z,100275.50
2022-08-05T09:04:30.513Z,100266.38
2022-08-05T09:06:57.827Z,100276.16
2022-08-05T09:09:26.011Z,100271.13
2022-08-05T09:12:19.868Z,100263.28
2022-08-05T09:14:58.424Z,100252.81
2022-08-05T09:17:40.622Z,100255.78
2022-08-05T09:20:09.587Z,100248.16
2022-08-05T09:23:19.709Z,100259.97
2022-08-05T09:26:03.413Z,100232.13
2022-08-05T09:28:34.594Z,100238.56
2022-08-05T09:31:22.199Z,100254.16
2022-08-05T09:34:03.694Z,100249.06
2022-08-05T09:36:55.614Z,100225.31
2022-08-05T09:39:39.262Z,100212.44
2022-08-05T09:42:23.219Z,100224.69
2022-08-05T09:44:56.401Z,100253.28
2022-08-05T09:47:34.953Z,100249.38
2022-08-05T09:50:13.100Z,100258.19
2022-08-05T09:52:45.301Z,100237.53
2022-08-05T09:55:58.343Z,100267.53
2022-08-05T09:58:00.169Z,100268.03
2022-08-05T10:00:29.713Z,100249.72
2022-08-05T10:02:58.474Z,100254.81
2022-08-05T10:05:27.883Z,100237.16
2022-08-05T10:08:11.171Z,100256.25
2022-08-05T10:10:53.933Z,100259.72
2022-08-05T10:13:54.566Z,100254.66
2022-08-05T10:16:29.564Z,100252.41
2022-08-05T10:18:57.144Z,100247.19
2022-08-05T10:21:24.226Z,100244.31
2022-08-05T10:23:59.846Z,100264.00
2022-08-05T10:26:32.286Z,100256.50
2022-08-05T10:29:00.674Z,100270.75
2022-08-05T10:32:52.971Z,100258.38
2022-08-05T10:34:13.861Z,100263.03
2022-08-05T10:36:41.833Z,100267.03
2022-08-05T10:39:25.276Z,100275.88
2022-08-05T10:42:18.786Z,100258.19
2022-08-05T10:44:59.298Z,100280.38
2022-08-05T10:47:36.543Z,100274.72
2022-08-05T10:50:32.455Z,100271.94
2022-08-05T10:53:01.107Z,100277.72
2022-08-05T10:55:30.565Z,100291.63
2022-08-05T10:58:11.404Z,100289.22
2022-08-05T11:00:42.214Z,100295.28
2022-08-05T11:03:23.545Z,100290.84
2022-08-05T11:06:14.693Z,100303.00
2022-08-05T11:09:13.228Z,100290.16
2022-08-05T11:11:53.344Z,100288.66
2022-08-05T11:14:57.759Z,100281.66
2022-08-05T11:17:58.916Z,100313.13
2022-08-05T11:20:34.431Z,100292.81
2022-08-05T11:24:04.075Z,100309.88
2022-08-05T11:26:43.528Z,100319.03
2022-08-05T11:29:37.659Z,100326.03
2022-08-05T11:32:24.460Z,100325.19
2022-08-05T11:34:54.459Z,100325.22
2022-08-05T11:38:29.410Z,100328.44
2022-08-05T11:41:03.378Z,100330.81
2022-08-05T11:44:08.295Z,100323.44
2022-08-05T11:46:58.297Z,100300.97
2022-08-05T11:49:25.703Z,100300.69
2022-08-05T11:51:53.484Z,100285.81
2022-08-05T11:54:33.989Z,100307.28
2022-08-05T11:57:07.587Z,100303.88
2022-08-05T11:59:50.169Z,100308.47
2022-08-05T12:02:30.081Z,100311.09
2022-08-05T12:04:59.379Z,100310.91
2022-08-05T12:08:08.221Z,100324.25
2022-08-05T12:10:19.683Z,100323.53
2022-08-05T12:12:46.659Z,100321.78
2022-08-05T12:15:38.600Z,100317.88
2022-08-05T12:18:11.073Z,100329.78
2022-08-05T12:20:38.995Z,100325.63
2022-08-05T12:23:12.365Z,100344.94
2022-08-05T12:25:56.909Z,100345.13
2022-08-05T12:28:37.039Z,100333.50
2022-08-05T12:31:05.776Z,100339.66
2022-08-05T12:33:36.643Z,100349.34
2022-08-05T12:36:08.544Z,100348.72
2022-08-05T12:38:38.272Z,100352.25
2022-08-05T12:41:13.287Z,100357.00
2022-08-05T12:43:51.700Z,100350.63
2022-08-05T12:46:28.989Z,100349.53
2022-08-05T12:49:13.402Z,100356.50
2022-08-05T12:52:14.263Z,100363.13
2022-08-05T12:54:40.941Z,100357.56
2022-08-05T12:57:10.553Z,100369.03
2022-08-05T13:01:58.168Z,100361.59
2022-08-05T13:02:41.419Z,100378.53
2022-08-05T13:05:12.532Z,100386.88
2022-08-05T13:08:00.264Z,100377.81
2022-08-05T13:10:28.627Z,100402.19
2022-08-05T13:12:58.142Z,100374.13
2022-08-05T13:15:41.259Z,100401.69
2022-08-05T13:18:19.636Z,100400.53
2022-08-05T13:20:48.942Z,100400.47
2022-08-05T13:23:22.014Z,100399.09
2022-08-05T13:25:52.327Z,100406.78
2022-08-05T13:28:27.107Z,100415.84
2022-08-05T13:30:53.838Z,100389.91
2022-08-05T13:34:24.308Z,100395.66
2022-08-05T13:36:09.216Z,100433.03
2022-08-05T13:38:38.433Z,100445.94
2022-08-05T13:41:10.772Z,100439.19
2022-08-05T13:43:44.131Z,100439.72
2022-08-05T13:46:14.070Z,100444.66
2022-08-05T13:48:57.576Z,100443.84
2022-08-05T13:51:36.449Z,100416.56
2022-08-05T13:54:11.761Z,100447.91
2022-08-05T13:56:45.028Z,100441.38
2022-08-05T13:59:24.741Z,100419.25
2022-08-05T14:02:00.258Z,100415.06
2022-08-05T14:04:49.529Z,100376.97
2022-08-05T14:07:56.309Z,100410.09
2022-08-05T14:10:09.654Z,100427.50
2022-08-05T14:12:36.785Z,100430.44
2022-08-05T14:16:05.345Z,100415.03
2022-08-05T14:17:51.278Z,100427.66
2022-08-05T14:20:21.764Z,100442.72
2022-08-05T14:22:54.372Z,100449.94
2022-08-05T14:25:22.529Z,100456.31
2022-08-05T14:27:54.528Z,100460.31
2022-08-05T14:30:21.429Z,100464.03
2022-08-05T14:32:48.897Z,100439.91
2022-08-05T14:35:16.243Z,100451.69
2022-08-05T14:37:52.201Z,100450.34
2022-08-05T14:40:24.423Z,100458.19
2022-08-05T14:42:51.417Z,100455.69
2022-08-05T14:45:18.794Z,100457.88
2022-08-05T14:48:05.454Z,100460.25
2022-08-05T14:50:32.311Z,100457.13
2022-08-05T14:52:59.609Z,100456.72
2022-08-05T14:55:28.756Z,100439.28
2022-08-05T14:58:11.334Z,100444.00
2022-08-05T15:00:59.172Z,100454.53
2022-08-05T15:03:33.939Z,100460.09
2022-08-05T15:06:08.031Z,100463.63
2022-08-05T15:08:59.145Z,100456.13
2022-08-05T15:11:51.388Z,100461.25
2022-08-05T15:14:33.323Z,100470.31
2022-08-05T15:17:01.445Z,100475.31
2022-08-05T15:19:30.885Z,100482.00
2022-08-05T15:22:00.260Z,100486.94
2022-08-05T15:24:27.972Z,100486.41
2022-08-05T15:26:55.806Z,100495.53
2022-08-05T15:29:22.961Z,100499.03
2022-08-05T15:31:53.008Z,100504.44
2022-08-05T15:34:33.133Z,100507.03
2022-08-05T15:37:06.478Z,100513.31
2022-08-05T15:41:00.430Z,100511.59
2022-08-05T15:42:49.943Z,100522.41
2022-08-05T15:45:14.886Z,100529.41
2022-08-05T15:47:43.980Z,100515.63
2022-08-05T15:50:15.167Z,100528.78
2022-08-05T15:52:52.599Z,100541.66
2022-08-05T15:55:25.080Z,100546.53
2022-08-05T15:58:07.309Z,100555.63
2022-08-05T16:00:50.614Z,100525.75
2022-08-05T16:03:20.429Z,100549.38
2022-08-05T16:05:50.777Z,100556.34
2022-08-05T16:08:19.290Z,100556.81
2022-08-05T16:10:45.807Z,100553.56
2022-08-05T16:13:12.703Z,100557.53
2022-08-05T16:15:51.854Z,100549.53
2022-08-05T16:18:18.895Z,100542.91
2022-08-05T16:20:46.410Z,100561.81
2022-08-05T16:23:12.985Z,100558.13
2022-08-05T16:25:40.047Z,100544.09
2022-08-05T16:28:10.434Z,100563.53
2022-08-05T16:30:37.690Z,100571.91
2022-08-05T16:33:04.400Z,100566.56
2022-08-05T16:35:32.453Z,100568.44
2022-08-05T16:38:03.236Z,100568.97
2022-08-05T16:40:52.298Z,100560.34
2022-08-05T16:43:23.897Z,100589.72
2022-08-05T16:46:03.701Z,100581.34
2022-08-05T16:48:35.739Z,100586.75
2022-08-05T16:51:03.777Z,100594.28
2022-08-05T16:54:02.409Z,100581.06
2022-08-05T16:56:23.834Z,100607.34
2022-08-05T16:58:50.719Z,100600.66
2022-08-05T17:01:18.879Z,100597.53
2022-08-05T17:03:45.843Z,100599.00
2022-08-05T17:06:12.769Z,100595.44
2022-08-05T17:08:53.178Z,100604.94
2022-08-05T17:11:23.910Z,100601.09
2022-08-05T17:14:00.587Z,100609.03
2022-08-05T17:16:37.710Z,100593.41
2022-08-05T17:19:07.737Z,100600.09
2022-08-05T17:21:37.437Z,100569.13
2022-08-05T17:24:28.461Z,100591.16
2022-08-05T17:26:56.535Z,100596.69
2022-08-05T17:29:33.888Z,100602.91
2022-08-05T17:32:11.445Z,100606.16
2022-08-05T17:34:43.696Z,100594.69
2022-08-05T17:37:41.005Z,100618.00
2022-08-05T17:39:59.844Z,100615.88
2022-08-05T17:42:31.950Z,100632.50
2022-08-05T17:45:09.847Z,100638.03
2022-08-05T17:47:47.053Z,100634.50
2022-08-05T17:50:27.793Z,100639.06
2022-08-05T17:52:55.809Z,100627.13
2022-08-05T17:55:34.517Z,100632.41
2022-08-05T17:58:06.972Z,100622.44
2022-08-05T18:00:36.156Z,100648.97
2022-08-05T18:03:06.514Z,100653.84
2022-08-05T18:05:35.463Z,100655.94
2022-08-05T18:08:02.819Z,100643.59
2022-08-05T18:10:32.090Z,100658.06
2022-08-05T18:13:00.528Z,100633.63
2022-08-05T18:15:31.101Z,100650.69
2022-08-05T18:18:05.576Z,100665.72
2022-08-05T18:20:38.018Z,100671.97
2022-08-05T18:23:09.197Z,100677.63
2022-08-05T18:25:39.130Z,100691.38
2022-08-05T18:28:06.813Z,100682.75
2022-08-05T18:30:34.336Z,100674.00
2022-08-05T18:33:01.625Z,100694.19
2022-08-05T18:36:01.104Z,100699.28
2022-08-05T18:38:19.422Z,100700.81
2022-08-05T18:41:56.291Z,100696.94
2022-08-05T18:43:43.101Z,100700.34
2022-08-05T18:46:15.193Z,100705.31
2022-08-05T18:48:42.140Z,100721.03
2022-08-05T18:52:04.015Z,100722.00
2022-08-05T18:54:15.206Z,100719.84
2022-08-05T18:56:41.788Z,100723.63
2022-08-05T18:59:43.707Z,100742.34
2022-08-05T19:02:04.987Z,100743.47
2022-08-05T19:05:01.476Z,100729.09
2022-08-05T19:07:45.935Z,100757.38
2022-08-05T19:10:16.771Z,100755.31
2022-08-05T19:12:43.799Z,100757.28
2022-08-05T19:15:57.935Z,100763.13
2022-08-05T19:18:10.219Z,100766.34
2022-08-05T19:20:41.352Z,100773.78
2022-08-05T19:24:06.210Z,100782.75
2022-08-05T19:26:02.070Z,100769.34
2022-08-05T19:28:29.788Z,100785.50
2022-08-05T19:30:56.316Z,100795.94
2022-08-05T19:33:35.788Z,100797.56
2022-08-05T19:36:06.902Z,100809.25
2022-08-05T19:38:35.706Z,100808.44
2022-08-05T19:41:07.136Z,100819.44
2022-08-05T19:44:06.133Z,100813.38
2022-08-05T19:46:29.962Z,100831.81
2022-08-05T19:49:00.827Z,100819.00
2022-08-05T19:52:05.821Z,100848.09
2022-08-05T19:54:21.999Z,100854.44
2022-08-05T19:56:55.220Z,100845.50
2022-08-05T19:59:54.711Z,100850.31
2022-08-05T20:02:08.544Z,100831.75
2022-08-05T20:04:35.163Z,100854.59
2022-08-05T20:07:02.448Z,100826.38
2022-08-05T20:09:29.194Z,100854.44
2022-08-05T20:12:15.680Z,100853.56
2022-08-05T20:14:42.309Z,100859.94
2022-08-05T20:17:10.000Z,100868.00
2022-08-05T20:19:42.754Z,100869.88
2022-08-05T20:22:09.539Z,100882.84
2022-08-05T20:24:36.765Z,100880.63
2022-08-05T20:27:11.377Z,100890.88
2022-08-05T20:29:38.411Z,100890.41
2022-08-05T20:32:06.571Z,100901.91
2022-08-05T20:34:33.243Z,100891.75
2022-08-05T20:37:00.788Z,100877.81
2022-08-05T20:39:36.459Z,100905.81
2022-08-05T20:42:04.271Z,100905.25
2022-08-05T20:44:32.813Z,100906.06
2022-08-05T20:47:06.718Z,100913.66
2022-08-05T20:49:39.672Z,100906.28
2022-08-05T20:52:07.521Z,100912.16
2022-08-05T20:54:43.557Z,100909.44
2022-08-05T20:57:42.610Z,100893.56
2022-08-05T21:00:20.054Z,100923.28
2022-08-05T21:03:07.555Z,100912.88
2022-08-05T21:05:48.392Z,100891.69
2022-08-05T21:08:32.875Z,100926.66
2022-08-05T21:11:10.331Z,100911.13
2022-08-05T21:13:48.088Z,100912.56
2022-08-05T21:16:30.082Z,100932.63
2022-08-05T21:19:01.058Z,100936.28
2022-08-05T21:21:44.262Z,100937.16
2022-08-05T21:24:16.305Z,100936.75
2022-08-05T21:26:53.364Z,100931.13
2022-08-05T21:29:31.381Z,100923.47
2022-08-05T21:31:58.861Z,100944.16
2022-08-05T21:34:25.413Z,100942.78
2022-08-05T21:36:54.829Z,100934.88
2022-08-05T21:39:26.521Z,100954.84
2022-08-05T21:42:01.228Z,100929.97
2022-08-05T21:44:28.459Z,100947.31
2022-08-05T21:46:57.931Z,100941.22
2022-08-05T21:49:58.459Z,100943.66
2022-08-05T21:52:23.031Z,100915.28
2022-08-05T21:54:55.384Z,100948.19
2022-08-05T21:57:31.384Z,100947.22
2022-08-05T22:00:11.093Z,100949.78
2022-08-05T22:02:38.392Z,100941.72
2022-08-05T22:05:05.423Z,100948.50
2022-08-05T22:07:40.125Z,100952.47
2022-08-05T22:10:27.173Z,100968.69
2022-08-05T22:12:57.359Z,100972.47
2022-08-05T22:16:04.734Z,100949.56
2022-08-05T22:18:11.265Z,100972.69
2022-08-05T22:20:39.754Z,100965.75
2022-08-05T22:24:02.764Z,100981.38
2022-08-05T22:26:49.979Z,100971.72
2022-08-05T22:29:18.703Z,100975.63
2022-08-05T22:31:59.133Z,100963.44
2022-08-05T22:34:28.677Z,100975.28
2022-08-05T22:36:56.899Z,100983.81
2022-08-05T22:39:29.797Z,100972.91
2022-08-05T22:42:09.264Z,100983.00
2022-08-05T22:44:38.419Z,100995.47
2022-08-05T22:47:05.956Z,100994.59
2022-08-05T22:50:20.557Z,100994.00
2022-08-05T22:52:32.414Z,100999.16
2022-08-05T22:55:01.388Z,100985.66
2022-08-05T22:57:34.262Z,101006.38
2022-08-05T23:00:08.117Z,101006.28
2022-08-05T23:02:39.991Z,101010.25
2022-08-05T23:05:15.160Z,101014.88
2022-08-05T23:07:43.839Z,100997.91
2022-08-05T23:10:14.865Z,101016.25
2022-08-05T23:12:43.742Z,101014.19
2022-08-05T23:15:10.880Z,101020.75
2022-08-05T23:18:01.700Z,101024.72
2022-08-05T23:20:25.379Z,101029.88
2022-08-05T23:22:54.150Z,101017.84
2022-08-05T23:25:52.100Z,101024.41
2022-08-05T23:28:10.116Z,101048.13
2022-08-05T23:30:39.660Z,101048.13
2022-08-05T23:33:22.118Z,101046.72
2022-08-05T23:35:55.946Z,101046.81
2022-08-05T23:38:24.141Z,101050.69
2022-08-05T23:40:52.654Z,101050.22
2022-08-05T23:43:25.320Z,101023.97
2022-08-05T23:46:20.037Z,101056.03
2022-08-05T23:49:00.999Z,101055.38
2022-08-05T23:51:53.428Z,101056.25
2022-08-05T23:54:33.787Z,101058.91
2022-08-05T23:57:04.765Z,101062.56
